Canal Winchester, Ohio
Current Conditions -  °F | °C
As of 3:15 AM on Tuesday 21 Oct 2014 (Local Time) from KLCK Reporting Station
Haze Haze  
Wind Chill: 46°   Ceiling: 7500
Heat Index: 46°   Visibility: 5mi
Dew Point: 46°   Wind: 3mph
Humidity: 97%   Direction: 230°SW
Pressure: 29.9"   Gusts: NA
Location:  39.85°N, 82.82°W
Report Text: KLCK 210715Z AUTO 23003KT 5SM BR SCT033 BKN075 OVC095 08/08 A2990 RMK AO2 T00800076
Loading
Personal Weather Stations






























Interactive Weather Map
Tropical Storm Tracking
New forecast layout! Learn more

10-Day Weather Forecast

Advertisements
Track Severe Weather on mobile